Terminal Aerodrome Forecast
Issued by NWS Nashville, TN

Current Version | Previous Version | Text Only | Print | Product List | Glossary Off
Versions: 1 2 3 4 5 6 7 8 9 10 11 12 13 14 15 16 17 18 19

000
FTUS44 KOHX 281740
TAFBNA
TAF
KBNA 281740Z 2818/2918 18008KT P6SM VCSH BKN150
     FM290000 VRB03KT P6SM SCT100 BKN250
     FM290900 00000KT 5SM BR SCT040 SCT100=

USA.gov is the U.S. government's official web portal to all federal, state and local government web resources and services.